• Join FlightAware (Why Join?)
  • Login
  • US Flag 
11:04PM EDT


 

Airport Tracker/Info


-or-


 

Live Flight TrackerFlight Track Log ✈ RAX1022 ✈ 25-Apr-2013 ✈ KBUF - KBDL

Flight Track Log - Related Links

Times and Time Zones

All times are in EDT time to prevent confusion due to time zone crossing. See the RAX1022 flight status page for this flight to view local times or setup timezone preferences in your user account.

Time Position Orientation Groundspeed Altitude Reporting Facility
EDT Latitude Longitude Course Direction KTS MPH feet Rate Location/Type
09:23PM 42.9333 -78.7167 114° Southeast 113 130 1,300  Level Buffalo TRACON
09:24PM 42.9167 -78.6667 114° Southeast 141 162 2,700 1,380 Climbing Buffalo TRACON
09:25PM 42.9167 -78.6167 90° East 157 181 4,000 1,440 Climbing Buffalo TRACON
09:26PM 42.9167 -78.5667 90° East 153 176 5,500 1,380 Climbing Buffalo TRACON
09:27PM 42.9153 -78.5336 93° East 151 174 6,300 1,260 Climbing Cleveland Center
09:28PM 42.9056 -78.4631 101° East 153 176 7,900 1,200 Climbing Cleveland Center
09:29PM 42.8961 -78.4067 103° East 157 181 9,000 540 Climbing Cleveland Center
09:30PM 42.8822 -78.3336 105° East 207 238 9,000  Level Cleveland Center
09:31PM 42.8703 -78.2489 101° East 209 241 9,000  Level Cleveland Center
09:32PM 42.8581 -78.1700 102° East 213 245 9,000  Level Cleveland Center
09:33PM 42.8481 -78.0939 100° East 213 245 9,000  Level Cleveland Center
09:34PM 42.8381 -78.0094 99° East 203 234 9,000  Level Cleveland Center
09:35PM 42.8281 -77.9389 101° East 198 228 9,000  Level Cleveland Center
09:36PM 42.8158 -77.8658 103° East 201 231 9,000  Level Cleveland Center
09:37PM 42.8103 -77.8039 97° East 198 228 9,000  Level Cleveland Center
09:38PM 42.7981 -77.7253 102° East 200 230 9,000  Level Cleveland Center
09:39PM 42.7878 -77.6522 101° East 200 230 9,000  Level Cleveland Center
09:40PM 42.7758 -77.5875 104° East 197 227 9,000  Level Cleveland Center
09:41PM 42.7633 -77.5119 103° East 204 235 9,000 -60 Level Cleveland Center
09:43PM 42.7417 -77.3306 99° East 202 232 8,900 -60 Descending New York Center
09:44PM 42.7311 -77.2561 101° East 202 232 8,900  Level New York Center
09:45PM 42.7206 -77.1817 101° East 202 232 8,900  Level New York Center
09:46PM 42.7078 -77.1069 103° East 202 232 8,900  Level New York Center
09:47PM 42.6953 -77.0325 103° East 202 232 8,900  Level New York Center
09:48PM 42.6844 -76.9608 102° East 202 232 8,900  Level New York Center
09:49PM 42.6736 -76.8864 101° East 207 238 8,900  Level New York Center
09:50PM 42.6642 -76.8172 100° East 197 227 9,000 60 Climbing Boston Center
09:51PM 42.6575 -76.7772 103° East 196 226 9,000  Level Boston Center
09:52PM 42.6436 -76.7028 104° East 195 224 9,000  Level Boston Center
09:53PM 42.6319 -76.6231 101° East 197 227 9,000  Level Boston Center
09:54PM 42.6178 -76.5486 104° East 196 226 9,000  Level Boston Center
09:58PM 42.5736 -76.2664 102° East 205 236 9,000  Level Boston Center
10:04PM 42.4986 -75.8028 101° East 205 236 9,000  Level Boston Center
10:06PM 42.4900 -75.6967 96° East  Level FlightAware Approximate
10:13PM 42.4497 -75.2129 96° East  Level FlightAware Approximate
10:14PM 42.4437 -75.1438 97° East  Level FlightAware Approximate
10:14PM 42.4469 -75.0711 97° East 194 223 9,000  Level Boston Center
10:15PM 42.4378 -75.0748 97° East  Level FlightAware Approximate
10:16PM 42.4263 -74.9683 105° East  Level Estimated
10:16PM 42.4318 -75.0057 97° East  Level FlightAware Approximate
10:17PM 42.4257 -74.9367 97° East  Level FlightAware Approximate
10:17PM 42.4289 -74.8508 105° East 194 223 9,000  Level Boston Center
10:18PM 42.4196 -74.8677 97° East  Level FlightAware Approximate
10:19PM 42.4135 -74.7987 97° East  Level FlightAware Approximate
10:19PM 42.4172 -74.7181 97° East 197 227 9,000  Level Boston Center
10:20PM 42.4064 -74.6361 100° East 201 231 9,000  Level Boston Center
10:21PM 42.4058 -74.5544 91° East 207 238 9,000  Level Boston Center
10:23PM 42.3958 -74.4136 95° East 199 229 9,000  Level Boston Center
10:24PM 42.3886 -74.3489 99° East 200 230 9,000  Level Boston Center
10:25PM 42.3794 -74.2697 99° East 199 229 9,000  Level Boston Center
10:26PM 42.3744 -74.1967 95° East 198 228 9,000  Level Boston Center
10:27PM 42.3653 -74.1064 98° East 198 228 9,000  Level Boston Center
10:28PM 42.3619 -74.0500 95° East 200 230 9,000  Level Boston Center
10:29PM 42.3528 -73.9628 98° East 198 228 9,000  Level Boston Center
10:31PM 42.3419 -73.8136 96° East 198 228 9,000  Level Boston Center
10:32PM 42.3344 -73.7433 98° East 202 232 9,000  Level Boston Center
10:33PM 42.3292 -73.6644 95° East 202 232 9,000  Level Boston Center
10:35PM 42.3139 -73.5239 98° East 205 236 9,000  Level Boston Center
10:36PM 42.3061 -73.4592 99° East 204 235 9,000  Level Boston Center
10:37PM 42.3006 -73.3833 96° East 201 231 9,000  Level Boston Center
10:38PM 42.2950 -73.3131 96° East 198 228 9,000  Level Boston Center
10:39PM 42.2872 -73.2372 98° East 198 228 9,000  Level Boston Center
10:40PM 42.2814 -73.1642 96° East 198 228 9,000 -300 Level Boston Center
10:41PM 42.2694 -73.0911 102° East 203 234 8,400 -660 Descending Boston Center
10:42PM 42.2553 -73.0122 104° East 212 244 7,700 -720 Descending Boston Center
10:43PM 42.2408 -72.9336 104° East 211 243 7,000 -780 Descending Boston Center
10:44PM 42.2247 -72.8494 104° East 214 246 6,200 -780 Descending Boston Center
10:45PM 42.2103 -72.7653 103° East 217 250 5,400 -600 Descending Boston Center
10:46PM 42.2042 -72.6839 96° East 204 235 5,000 -420 Descending Boston Center
10:47PM 42.2064 -72.6028 88° East 201 231 4,600 -360 Descending Boston Center
10:49PM 42.1216 -72.6279 192° South  Level FlightAware Approximate
10:55PM 42.0086 -72.5939 180° South 122 140 2,000  Level Boston Center
10:56PM 41.9333 -72.6833 180° South  Level FlightAware Approximate
10:56PM 41.9792 -72.6328 224° Southwest 127 146 1,200  Level Boston Center
10:57PM 41.9392 -72.6834 180° South  Level Estimated
10:58PM 41.9333 -72.6833 180° South  Level FlightAware Approximate
10:59PM 41.9392 -72.6834 180° South  Level Estimated
11:00PM 41.9333 -72.6833 180° South  Level FlightAware Approximate